Cohasset, California
Current Conditions -  °F | °C
As of 3:47 PM on Wednesday 28 Jan 2015 (Local Time) from KCIC Reporting Station
Broken Clouds Broken Clouds  
Wind Chill: 68°   Ceiling: 25000
Heat Index: 68°   Visibility: 80mi
Dew Point: 46°   Wind: 8mph
Humidity: 46%   Direction: 300°WNW
Pressure: 30.13"   Gusts: NA
Location:  39.8244°N, 121.905°W
Report Text: KCIC 282347Z 30007KT 80SM FEW080 BKN250 20/08 A3013
Loading
Personal Weather Stations






























Interactive Weather Map New forecast layout! Learn more

10-Day Weather Forecast

Advertisements
Track Severe Weather on mobile